sensor_id;sensor_type;location;lat;lon;timestamp;P1;durP1;ratioP1;P2;durP2;ratioP2
60819;SDS011;46641;48.904;9.126;2022-10-16T00:00:32;1.87;;;1.60;;
60819;SDS011;46641;48.904;9.126;2022-10-16T00:05:23;1.83;;;1.37;;
60819;SDS011;46641;48.904;9.126;2022-10-16T00:10:14;3.00;;;2.03;;
60819;SDS011;46641;48.904;9.126;2022-10-16T00:15:04;2.73;;;1.57;;
60819;SDS011;46641;48.904;9.126;2022-10-16T00:19:55;2.10;;;1.50;;
60819;SDS011;46641;48.904;9.126;2022-10-16T00:24:46;1.43;;;1.20;;
60819;SDS011;46641;48.904;9.126;2022-10-16T00:29:37;1.67;;;1.57;;
60819;SDS011;46641;48.904;9.126;2022-10-16T00:34:27;2.73;;;1.20;;
60819;SDS011;46641;48.904;9.126;2022-10-16T00:39:18;4.65;;;1.70;;
60819;SDS011;46641;48.904;9.126;2022-10-16T00:49:37;2.03;;;1.37;;
60819;SDS011;46641;48.904;9.126;2022-10-16T00:54:29;2.73;;;1.33;;
60819;SDS011;46641;48.904;9.126;2022-10-16T00:59:22;1.40;;;1.30;;
60819;SDS011;46641;48.904;9.126;2022-10-16T01:04:15;1.57;;;1.30;;
60819;SDS011;46641;48.904;9.126;2022-10-16T01:14:22;1.67;;;1.37;;
60819;SDS011;46641;48.904;9.126;2022-10-16T01:19:32;3.77;;;1.50;;
60819;SDS011;46641;48.904;9.126;2022-10-16T01:24:39;1.80;;;1.40;;
60819;SDS011;46641;48.904;9.126;2022-10-16T01:35:26;1.37;;;1.23;;
60819;SDS011;46641;48.904;9.126;2022-10-16T01:40:12;2.93;;;1.33;;
60819;SDS011;46641;48.904;9.126;2022-10-16T01:45:05;2.73;;;1.40;;
60819;SDS011;46641;48.904;9.126;2022-10-16T01:49:57;2.23;;;1.50;;
60819;SDS011;46641;48.904;9.126;2022-10-16T01:54:50;1.50;;;1.40;;
60819;SDS011;46641;48.904;9.126;2022-10-16T01:59:46;1.70;;;1.57;;
60819;SDS011;46641;48.904;9.126;2022-10-16T02:04:44;1.70;;;1.40;;
60819;SDS011;46641;48.904;9.126;2022-10-16T02:09:37;1.50;;;1.33;;
60819;SDS011;46641;48.904;9.126;2022-10-16T02:14:28;1.27;;;1.17;;
60819;SDS011;46641;48.904;9.126;2022-10-16T02:19:19;2.00;;;1.60;;
60819;SDS011;46641;48.904;9.126;2022-10-16T02:24:27;1.97;;;1.80;;
60819;SDS011;46641;48.904;9.126;2022-10-16T02:29:24;1.70;;;1.60;;
60819;SDS011;46641;48.904;9.126;2022-10-16T02:34:16;2.13;;;1.70;;
60819;SDS011;46641;48.904;9.126;2022-10-16T02:39:08;1.70;;;1.60;;
60819;SDS011;46641;48.904;9.126;2022-10-16T02:43:59;1.77;;;1.50;;
60819;SDS011;46641;48.904;9.126;2022-10-16T02:48:49;1.70;;;1.60;;
60819;SDS011;46641;48.904;9.126;2022-10-16T02:53:40;1.83;;;1.73;;
60819;SDS011;46641;48.904;9.126;2022-10-16T02:58:30;2.00;;;1.63;;
60819;SDS011;46641;48.904;9.126;2022-10-16T03:03:20;2.27;;;1.50;;
60819;SDS011;46641;48.904;9.126;2022-10-16T03:08:11;1.77;;;1.67;;
60819;SDS011;46641;48.904;9.126;2022-10-16T03:13:01;1.80;;;1.30;;
60819;SDS011;46641;48.904;9.126;2022-10-16T03:17:52;2.13;;;1.43;;
60819;SDS011;46641;48.904;9.126;2022-10-16T03:22:42;2.33;;;1.57;;
60819;SDS011;46641;48.904;9.126;2022-10-16T03:27:33;2.03;;;1.67;;
60819;SDS011;46641;48.904;9.126;2022-10-16T03:32:23;4.50;;;1.80;;
60819;SDS011;46641;48.904;9.126;2022-10-16T03:37:14;1.60;;;1.50;;
60819;SDS011;46641;48.904;9.126;2022-10-16T03:42:05;2.30;;;1.67;;
60819;SDS011;46641;48.904;9.126;2022-10-16T03:46:55;2.80;;;2.08;;
60819;SDS011;46641;48.904;9.126;2022-10-16T03:51:45;4.13;;;1.60;;
60819;SDS011;46641;48.904;9.126;2022-10-16T03:56:36;2.27;;;1.87;;
60819;SDS011;46641;48.904;9.126;2022-10-16T04:01:26;1.83;;;1.73;;
60819;SDS011;46641;48.904;9.126;2022-10-16T04:06:16;3.60;;;1.60;;
60819;SDS011;46641;48.904;9.126;2022-10-16T04:11:06;1.92;;;1.73;;
60819;SDS011;46641;48.904;9.126;2022-10-16T04:15:57;2.60;;;2.10;;
60819;SDS011;46641;48.904;9.126;2022-10-16T04:20:47;3.60;;;2.30;;
60819;SDS011;46641;48.904;9.126;2022-10-16T04:25:37;3.67;;;2.20;;
60819;SDS011;46641;48.904;9.126;2022-10-16T04:30:28;2.20;;;2.00;;
60819;SDS011;46641;48.904;9.126;2022-10-16T04:35:19;4.23;;;2.00;;
60819;SDS011;46641;48.904;9.126;2022-10-16T04:40:10;2.90;;;2.27;;
60819;SDS011;46641;48.904;9.126;2022-10-16T04:45:01;2.90;;;2.13;;
60819;SDS011;46641;48.904;9.126;2022-10-16T04:49:51;2.47;;;2.20;;
60819;SDS011;46641;48.904;9.126;2022-10-16T04:54:41;2.80;;;1.90;;
60819;SDS011;46641;48.904;9.126;2022-10-16T04:59:32;2.53;;;2.20;;
60819;SDS011;46641;48.904;9.126;2022-10-16T05:04:22;2.80;;;1.80;;
60819;SDS011;46641;48.904;9.126;2022-10-16T05:09:13;3.40;;;2.33;;
60819;SDS011;46641;48.904;9.126;2022-10-16T05:14:03;2.38;;;1.98;;
60819;SDS011;46641;48.904;9.126;2022-10-16T05:18:53;2.43;;;1.90;;
60819;SDS011;46641;48.904;9.126;2022-10-16T05:23:44;3.83;;;1.90;;
60819;SDS011;46641;48.904;9.126;2022-10-16T05:28:35;3.23;;;1.97;;
60819;SDS011;46641;48.904;9.126;2022-10-16T05:33:25;1.70;;;1.60;;
60819;SDS011;46641;48.904;9.126;2022-10-16T05:38:16;2.77;;;1.90;;
60819;SDS011;46641;48.904;9.126;2022-10-16T05:43:07;3.07;;;1.90;;
60819;SDS011;46641;48.904;9.126;2022-10-16T05:47:57;4.77;;;2.70;;
60819;SDS011;46641;48.904;9.126;2022-10-16T05:52:47;2.95;;;2.17;;
60819;SDS011;46641;48.904;9.126;2022-10-16T05:57:38;3.30;;;2.33;;
60819;SDS011;46641;48.904;9.126;2022-10-16T06:02:28;4.10;;;2.40;;
60819;SDS011;46641;48.904;9.126;2022-10-16T06:07:19;2.97;;;1.90;;
60819;SDS011;46641;48.904;9.126;2022-10-16T06:12:09;3.37;;;2.10;;
60819;SDS011;46641;48.904;9.126;2022-10-16T06:17:00;2.90;;;2.05;;
60819;SDS011;46641;48.904;9.126;2022-10-16T06:21:50;1.97;;;1.73;;
60819;SDS011;46641;48.904;9.126;2022-10-16T06:26:40;2.40;;;2.20;;
60819;SDS011;46641;48.904;9.126;2022-10-16T06:31:31;2.43;;;2.00;;
60819;SDS011;46641;48.904;9.126;2022-10-16T06:36:23;5.17;;;2.00;;
60819;SDS011;46641;48.904;9.126;2022-10-16T06:41:16;3.37;;;2.00;;
60819;SDS011;46641;48.904;9.126;2022-10-16T06:46:09;2.53;;;2.10;;
60819;SDS011;46641;48.904;9.126;2022-10-16T06:51:05;2.97;;;2.00;;
60819;SDS011;46641;48.904;9.126;2022-10-16T06:56:12;2.40;;;1.90;;
60819;SDS011;46641;48.904;9.126;2022-10-16T07:01:07;4.90;;;3.20;;
60819;SDS011;46641;48.904;9.126;2022-10-16T07:06:02;3.10;;;2.73;;
60819;SDS011;46641;48.904;9.126;2022-10-16T07:11:00;6.87;;;5.13;;
60819;SDS011;46641;48.904;9.126;2022-10-16T07:15:52;4.63;;;3.20;;
60819;SDS011;46641;48.904;9.126;2022-10-16T07:20:42;4.03;;;2.10;;
60819;SDS011;46641;48.904;9.126;2022-10-16T07:25:33;2.33;;;2.07;;
60819;SDS011;46641;48.904;9.126;2022-10-16T07:30:23;2.20;;;2.00;;
60819;SDS011;46641;48.904;9.126;2022-10-16T07:35:13;2.00;;;1.90;;
60819;SDS011;46641;48.904;9.126;2022-10-16T07:40:04;7.20;;;2.38;;
60819;SDS011;46641;48.904;9.126;2022-10-16T07:44:55;3.43;;;2.30;;
60819;SDS011;46641;48.904;9.126;2022-10-16T07:49:45;4.83;;;2.60;;
60819;SDS011;46641;48.904;9.126;2022-10-16T07:54:36;2.50;;;2.30;;
60819;SDS011;46641;48.904;9.126;2022-10-16T07:59:26;4.07;;;2.20;;
60819;SDS011;46641;48.904;9.126;2022-10-16T08:04:16;2.22;;;1.90;;
60819;SDS011;46641;48.904;9.126;2022-10-16T08:09:07;3.00;;;2.23;;
60819;SDS011;46641;48.904;9.126;2022-10-16T08:13:58;2.53;;;2.17;;
60819;SDS011;46641;48.904;9.126;2022-10-16T08:18:48;2.90;;;2.53;;
60819;SDS011;46641;48.904;9.126;2022-10-16T08:23:41;3.67;;;2.20;;
60819;SDS011;46641;48.904;9.126;2022-10-16T08:28:31;2.63;;;2.07;;
60819;SDS011;46641;48.904;9.126;2022-10-16T08:33:22;3.53;;;2.00;;
60819;SDS011;46641;48.904;9.126;2022-10-16T08:38:12;2.70;;;1.80;;
60819;SDS011;46641;48.904;9.126;2022-10-16T08:48:22;3.70;;;3.00;;
60819;SDS011;46641;48.904;9.126;2022-10-16T08:53:36;6.63;;;2.40;;
60819;SDS011;46641;48.904;9.126;2022-10-16T08:58:39;5.53;;;2.30;;
60819;SDS011;46641;48.904;9.126;2022-10-16T09:08:58;2.67;;;2.13;;
60819;SDS011;46641;48.904;9.126;2022-10-16T09:13:51;2.73;;;2.17;;
60819;SDS011;46641;48.904;9.126;2022-10-16T09:19:11;3.40;;;2.10;;
60819;SDS011;46641;48.904;9.126;2022-10-16T09:24:16;3.17;;;2.13;;
60819;SDS011;46641;48.904;9.126;2022-10-16T09:29:12;2.53;;;2.23;;
60819;SDS011;46641;48.904;9.126;2022-10-16T09:34:03;4.00;;;2.07;;
60819;SDS011;46641;48.904;9.126;2022-10-16T09:39:06;3.30;;;2.20;;
60819;SDS011;46641;48.904;9.126;2022-10-16T09:43:59;5.63;;;2.50;;
60819;SDS011;46641;48.904;9.126;2022-10-16T09:48:51;4.50;;;2.47;;
60819;SDS011;46641;48.904;9.126;2022-10-16T09:53:46;3.93;;;2.17;;
60819;SDS011;46641;48.904;9.126;2022-10-16T09:58:37;2.03;;;1.50;;
60819;SDS011;46641;48.904;9.126;2022-10-16T10:08:27;1.70;;;1.60;;
60819;SDS011;46641;48.904;9.126;2022-10-16T10:13:21;1.83;;;1.60;;
60819;SDS011;46641;48.904;9.126;2022-10-16T10:18:15;2.67;;;2.03;;
60819;SDS011;46641;48.904;9.126;2022-10-16T10:23:21;3.40;;;1.83;;
60819;SDS011;46641;48.904;9.126;2022-10-16T10:38:25;2.10;;;1.63;;
60819;SDS011;46641;48.904;9.126;2022-10-16T11:09:43;3.37;;;1.80;;
60819;SDS011;46641;48.904;9.126;2022-10-16T11:14:42;2.23;;;2.00;;
60819;SDS011;46641;48.904;9.126;2022-10-16T11:24:40;2.40;;;1.63;;
60819;SDS011;46641;48.904;9.126;2022-10-16T11:29:40;1.97;;;1.80;;
60819;SDS011;46641;48.904;9.126;2022-10-16T11:34:50;1.90;;;1.60;;
60819;SDS011;46641;48.904;9.126;2022-10-16T11:39:45;2.77;;;1.70;;
60819;SDS011;46641;48.904;9.126;2022-10-16T11:50:11;1.67;;;1.47;;
60819;SDS011;46641;48.904;9.126;2022-10-16T11:55:09;1.70;;;1.50;;
60819;SDS011;46641;48.904;9.126;2022-10-16T12:00:10;2.30;;;1.77;;
60819;SDS011;46641;48.904;9.126;2022-10-16T12:05:25;2.33;;;1.50;;
60819;SDS011;46641;48.904;9.126;2022-10-16T12:10:26;2.80;;;1.73;;
60819;SDS011;46641;48.904;9.126;2022-10-16T12:15:23;2.60;;;1.63;;
60819;SDS011;46641;48.904;9.126;2022-10-16T12:25:20;2.63;;;1.70;;
60819;SDS011;46641;48.904;9.126;2022-10-16T12:30:18;2.17;;;1.50;;
60819;SDS011;46641;48.904;9.126;2022-10-16T12:35:22;2.70;;;1.87;;
60819;SDS011;46641;48.904;9.126;2022-10-16T12:45:29;2.27;;;2.07;;
60819;SDS011;46641;48.904;9.126;2022-10-16T12:50:35;1.93;;;1.73;;
60819;SDS011;46641;48.904;9.126;2022-10-16T12:55:27;1.90;;;1.67;;
60819;SDS011;46641;48.904;9.126;2022-10-16T13:21:18;1.70;;;1.60;;
60819;SDS011;46641;48.904;9.126;2022-10-16T13:26:24;2.23;;;1.67;;
60819;SDS011;46641;48.904;9.126;2022-10-16T13:31:21;1.87;;;1.77;;
60819;SDS011;46641;48.904;9.126;2022-10-16T13:36:18;2.33;;;2.00;;
60819;SDS011;46641;48.904;9.126;2022-10-16T13:46:15;2.47;;;1.93;;
60819;SDS011;46641;48.904;9.126;2022-10-16T13:51:14;2.40;;;2.03;;
60819;SDS011;46641;48.904;9.126;2022-10-16T13:56:13;2.53;;;2.10;;
60819;SDS011;46641;48.904;9.126;2022-10-16T14:01:11;4.27;;;2.20;;
60819;SDS011;46641;48.904;9.126;2022-10-16T14:06:14;2.87;;;2.33;;
60819;SDS011;46641;48.904;9.126;2022-10-16T14:11:07;1.77;;;1.67;;
60819;SDS011;46641;48.904;9.126;2022-10-16T14:15:58;1.60;;;1.50;;
60819;SDS011;46641;48.904;9.126;2022-10-16T14:20:52;2.07;;;1.70;;
60819;SDS011;46641;48.904;9.126;2022-10-16T14:25:43;2.70;;;1.73;;
60819;SDS011;46641;48.904;9.126;2022-10-16T14:30:34;2.27;;;1.73;;
60819;SDS011;46641;48.904;9.126;2022-10-16T14:35:28;1.50;;;1.40;;
60819;SDS011;46641;48.904;9.126;2022-10-16T14:40:28;2.30;;;1.70;;
60819;SDS011;46641;48.904;9.126;2022-10-16T14:45:21;2.47;;;1.83;;
60819;SDS011;46641;48.904;9.126;2022-10-16T14:50:13;5.00;;;1.83;;
60819;SDS011;46641;48.904;9.126;2022-10-16T14:55:04;3.53;;;2.27;;
60819;SDS011;46641;48.904;9.126;2022-10-16T14:59:54;2.30;;;2.10;;
60819;SDS011;46641;48.904;9.126;2022-10-16T15:04:46;3.50;;;2.03;;
60819;SDS011;46641;48.904;9.126;2022-10-16T15:09:37;4.13;;;2.10;;
60819;SDS011;46641;48.904;9.126;2022-10-16T15:14:27;2.40;;;2.20;;
60819;SDS011;46641;48.904;9.126;2022-10-16T15:19:17;3.13;;;2.27;;
60819;SDS011;46641;48.904;9.126;2022-10-16T15:24:08;1.90;;;1.80;;
60819;SDS011;46641;48.904;9.126;2022-10-16T15:29:01;2.60;;;2.30;;
60819;SDS011;46641;48.904;9.126;2022-10-16T15:33:52;2.70;;;2.47;;
60819;SDS011;46641;48.904;9.126;2022-10-16T15:38:47;2.70;;;2.50;;
60819;SDS011;46641;48.904;9.126;2022-10-16T15:43:38;2.73;;;2.33;;
60819;SDS011;46641;48.904;9.126;2022-10-16T15:48:28;2.75;;;2.50;;
60819;SDS011;46641;48.904;9.126;2022-10-16T15:53:19;2.70;;;1.90;;
60819;SDS011;46641;48.904;9.126;2022-10-16T15:58:10;4.00;;;2.10;;
60819;SDS011;46641;48.904;9.126;2022-10-16T16:03:00;3.33;;;2.10;;
60819;SDS011;46641;48.904;9.126;2022-10-16T16:07:51;2.67;;;2.30;;
60819;SDS011;46641;48.904;9.126;2022-10-16T16:12:41;3.67;;;2.53;;
60819;SDS011;46641;48.904;9.126;2022-10-16T16:17:32;3.73;;;1.90;;
60819;SDS011;46641;48.904;9.126;2022-10-16T16:22:23;2.93;;;2.07;;
60819;SDS011;46641;48.904;9.126;2022-10-16T16:27:13;3.50;;;2.20;;
60819;SDS011;46641;48.904;9.126;2022-10-16T16:32:04;5.40;;;3.00;;
60819;SDS011;46641;48.904;9.126;2022-10-16T16:36:54;3.40;;;2.97;;
60819;SDS011;46641;48.904;9.126;2022-10-16T16:41:46;4.37;;;2.70;;
60819;SDS011;46641;48.904;9.126;2022-10-16T16:46:36;4.73;;;2.60;;
60819;SDS011;46641;48.904;9.126;2022-10-16T16:51:29;3.77;;;2.70;;
60819;SDS011;46641;48.904;9.126;2022-10-16T16:56:20;4.17;;;3.37;;
60819;SDS011;46641;48.904;9.126;2022-10-16T17:01:11;9.03;;;8.30;;
60819;SDS011;46641;48.904;9.126;2022-10-16T17:10:56;5.40;;;5.10;;
60819;SDS011;46641;48.904;9.126;2022-10-16T17:15:48;3.73;;;3.30;;
60819;SDS011;46641;48.904;9.126;2022-10-16T17:20:39;3.97;;;2.50;;
60819;SDS011;46641;48.904;9.126;2022-10-16T17:25:30;5.07;;;2.67;;
60819;SDS011;46641;48.904;9.126;2022-10-16T17:30:22;3.93;;;2.47;;
60819;SDS011;46641;48.904;9.126;2022-10-16T17:35:13;3.60;;;2.53;;
60819;SDS011;46641;48.904;9.126;2022-10-16T17:40:04;10.53;;;8.20;;
60819;SDS011;46641;48.904;9.126;2022-10-16T17:44:54;9.63;;;6.73;;
60819;SDS011;46641;48.904;9.126;2022-10-16T17:49:44;4.73;;;3.57;;
60819;SDS011;46641;48.904;9.126;2022-10-16T17:54:35;3.23;;;2.90;;
60819;SDS011;46641;48.904;9.126;2022-10-16T17:59:25;3.00;;;2.80;;
60819;SDS011;46641;48.904;9.126;2022-10-16T18:04:17;3.60;;;3.30;;
60819;SDS011;46641;48.904;9.126;2022-10-16T18:09:07;4.33;;;2.50;;
60819;SDS011;46641;48.904;9.126;2022-10-16T18:13:59;2.87;;;2.60;;
60819;SDS011;46641;48.904;9.126;2022-10-16T18:18:50;3.90;;;2.87;;
60819;SDS011;46641;48.904;9.126;2022-10-16T18:23:42;4.63;;;3.10;;
60819;SDS011;46641;48.904;9.126;2022-10-16T18:28:33;4.17;;;2.67;;
60819;SDS011;46641;48.904;9.126;2022-10-16T18:33:23;5.40;;;2.63;;
60819;SDS011;46641;48.904;9.126;2022-10-16T18:38:14;4.00;;;2.87;;
60819;SDS011;46641;48.904;9.126;2022-10-16T18:43:05;3.47;;;2.70;;
60819;SDS011;46641;48.904;9.126;2022-10-16T18:47:55;4.03;;;3.00;;
60819;SDS011;46641;48.904;9.126;2022-10-16T18:52:47;4.07;;;3.03;;
60819;SDS011;46641;48.904;9.126;2022-10-16T18:57:38;9.97;;;7.57;;
60819;SDS011;46641;48.904;9.126;2022-10-16T19:02:28;4.97;;;3.80;;
60819;SDS011;46641;48.904;9.126;2022-10-16T19:07:18;5.47;;;3.63;;
60819;SDS011;46641;48.904;9.126;2022-10-16T19:12:09;4.67;;;3.40;;
60819;SDS011;46641;48.904;9.126;2022-10-16T19:16:59;5.13;;;3.50;;
60819;SDS011;46641;48.904;9.126;2022-10-16T19:21:49;5.87;;;3.47;;
60819;SDS011;46641;48.904;9.126;2022-10-16T19:26:45;4.93;;;3.20;;
60819;SDS011;46641;48.904;9.126;2022-10-16T19:31:35;4.67;;;3.40;;
60819;SDS011;46641;48.904;9.126;2022-10-16T19:36:27;5.90;;;3.37;;
60819;SDS011;46641;48.904;9.126;2022-10-16T19:41:20;4.27;;;3.40;;
60819;SDS011;46641;48.904;9.126;2022-10-16T19:46:12;4.33;;;3.30;;
60819;SDS011;46641;48.904;9.126;2022-10-16T19:51:03;3.37;;;3.00;;
60819;SDS011;46641;48.904;9.126;2022-10-16T19:55:54;3.83;;;3.30;;
60819;SDS011;46641;48.904;9.126;2022-10-16T20:00:45;3.60;;;3.30;;
60819;SDS011;46641;48.904;9.126;2022-10-16T20:05:36;7.50;;;3.40;;
60819;SDS011;46641;48.904;9.126;2022-10-16T20:10:26;4.97;;;3.70;;
60819;SDS011;46641;48.904;9.126;2022-10-16T20:15:16;4.97;;;3.30;;
60819;SDS011;46641;48.904;9.126;2022-10-16T20:20:07;4.43;;;2.90;;
60819;SDS011;46641;48.904;9.126;2022-10-16T20:24:58;4.63;;;3.07;;
60819;SDS011;46641;48.904;9.126;2022-10-16T20:29:48;5.53;;;3.07;;
60819;SDS011;46641;48.904;9.126;2022-10-16T20:34:38;3.20;;;2.87;;
60819;SDS011;46641;48.904;9.126;2022-10-16T20:39:28;3.53;;;3.10;;
60819;SDS011;46641;48.904;9.126;2022-10-16T20:44:19;4.63;;;3.10;;
60819;SDS011;46641;48.904;9.126;2022-10-16T20:49:09;6.03;;;3.60;;
60819;SDS011;46641;48.904;9.126;2022-10-16T20:54:01;8.77;;;3.77;;
60819;SDS011;46641;48.904;9.126;2022-10-16T20:58:54;5.43;;;3.43;;
60819;SDS011;46641;48.904;9.126;2022-10-16T21:03:48;5.03;;;3.53;;
60819;SDS011;46641;48.904;9.126;2022-10-16T21:08:40;5.03;;;2.97;;
60819;SDS011;46641;48.904;9.126;2022-10-16T21:13:32;4.17;;;3.03;;
60819;SDS011;46641;48.904;9.126;2022-10-16T21:18:22;4.47;;;3.47;;
60819;SDS011;46641;48.904;9.126;2022-10-16T21:23:12;4.38;;;3.17;;
60819;SDS011;46641;48.904;9.126;2022-10-16T21:28:03;3.65;;;3.05;;
60819;SDS011;46641;48.904;9.126;2022-10-16T21:32:53;9.07;;;3.40;;
60819;SDS011;46641;48.904;9.126;2022-10-16T21:37:49;3.87;;;3.47;;
60819;SDS011;46641;48.904;9.126;2022-10-16T21:42:39;3.93;;;3.47;;
60819;SDS011;46641;48.904;9.126;2022-10-16T21:47:30;4.10;;;3.70;;
60819;SDS011;46641;48.904;9.126;2022-10-16T21:52:21;5.10;;;3.33;;
60819;SDS011;46641;48.904;9.126;2022-10-16T21:57:11;3.60;;;3.30;;
60819;SDS011;46641;48.904;9.126;2022-10-16T22:02:01;4.00;;;3.43;;
60819;SDS011;46641;48.904;9.126;2022-10-16T22:06:52;8.67;;;3.67;;
60819;SDS011;46641;48.904;9.126;2022-10-16T22:11:42;3.90;;;3.30;;
60819;SDS011;46641;48.904;9.126;2022-10-16T22:16:34;3.57;;;3.27;;
60819;SDS011;46641;48.904;9.126;2022-10-16T22:21:25;4.17;;;3.60;;
60819;SDS011;46641;48.904;9.126;2022-10-16T22:26:17;5.33;;;3.00;;
60819;SDS011;46641;48.904;9.126;2022-10-16T22:31:09;3.70;;;3.07;;
60819;SDS011;46641;48.904;9.126;2022-10-16T22:36:01;4.70;;;3.50;;
60819;SDS011;46641;48.904;9.126;2022-10-16T22:40:53;5.30;;;3.50;;
60819;SDS011;46641;48.904;9.126;2022-10-16T22:45:43;3.63;;;3.30;;
60819;SDS011;46641;48.904;9.126;2022-10-16T22:50:33;4.47;;;3.33;;
60819;SDS011;46641;48.904;9.126;2022-10-16T22:55:24;3.77;;;3.27;;
60819;SDS011;46641;48.904;9.126;2022-10-16T23:00:15;5.93;;;3.17;;
60819;SDS011;46641;48.904;9.126;2022-10-16T23:05:08;3.67;;;3.20;;
60819;SDS011;46641;48.904;9.126;2022-10-16T23:09:59;4.17;;;3.20;;
60819;SDS011;46641;48.904;9.126;2022-10-16T23:14:49;3.97;;;3.40;;
60819;SDS011;46641;48.904;9.126;2022-10-16T23:19:39;5.13;;;3.40;;
60819;SDS011;46641;48.904;9.126;2022-10-16T23:24:30;5.43;;;3.70;;
60819;SDS011;46641;48.904;9.126;2022-10-16T23:29:20;3.43;;;3.10;;
60819;SDS011;46641;48.904;9.126;2022-10-16T23:34:11;4.33;;;3.10;;
60819;SDS011;46641;48.904;9.126;2022-10-16T23:39:01;3.23;;;2.93;;
60819;SDS011;46641;48.904;9.126;2022-10-16T23:43:51;3.87;;;2.83;;
60819;SDS011;46641;48.904;9.126;2022-10-16T23:48:42;4.63;;;3.00;;
60819;SDS011;46641;48.904;9.126;2022-10-16T23:53:33;3.83;;;3.00;;
60819;SDS011;46641;48.904;9.126;2022-10-16T23:58:23;4.23;;;3.00;;
